Time;durP1;ratioP1;P1;durP2;ratioP2;P2;SDS_P1;SDS_P2;PMS_P1;PMS_P2;Temp;Humidity;BMP_temperature;BMP_pressure;BME280_temperature;BME280_humidity;BME280_pressure;Samples;Min_cycle;Max_cycle;Signal;HPM_P1;HPM_P2
2022/06/05 00:01:51;;;;;;;21.10;13.73;;;;;;;;;;7330136;19;153655;-17
2022/06/05 00:04:36;;;;;;;20.38;12.85;;;;;;;;;;7329584;19;162038;-17
2022/06/05 00:07:17;;;;;;;20.83;13.07;;;;;;;;;;7326681;19;162359;-15
2022/06/05 00:09:58;;;;;;;20.65;13.38;;;;;;;;;;7329782;19;154141;-18
2022/06/05 00:12:36;;;;;;;20.08;12.95;;;;;;;;;;7332819;19;153624;-17
2022/06/05 00:15:09;;;;;;;20.20;12.63;;;;;;;;;;7329323;19;161772;-16
2022/06/05 00:17:40;;;;;;;19.90;13.15;;;;;;;;;;7327776;19;162349;-16
2022/06/05 00:20:15;;;;;;;19.73;13.05;;;;;;;;;;7329366;19;153966;-17
2022/06/05 00:22:46;;;;;;;21.92;12.68;;;;;;;;;;7329167;19;153723;-17
2022/06/05 00:25:17;;;;;;;19.08;12.68;;;;;;;;;;7328385;19;161712;-17
2022/06/05 00:27:56;;;;;;;21.52;12.10;;;;;;;;;;7328849;19;162496;-16
2022/06/05 00:30:38;;;;;;;20.08;12.30;;;;;;;;;;7338181;19;154035;-17
2022/06/05 00:33:15;;;;;;;20.38;13.30;;;;;;;;;;7343252;19;153609;-17
2022/06/05 00:35:56;;;;;;;18.45;12.13;;;;;;;;;;7342604;19;161782;-17
2022/06/05 00:38:37;;;;;;;19.02;12.20;;;;;;;;;;7342651;19;162193;-17
2022/06/05 00:41:36;;;;;;;16.42;10.80;;;;;;;;;;7342886;19;154037;-17
2022/06/05 00:44:08;;;;;;;16.92;11.20;;;;;;;;;;7342922;19;153828;-16
2022/06/05 00:46:40;;;;;;;20.02;11.65;;;;;;;;;;7340837;19;162035;-17
2022/06/05 00:49:13;;;;;;;10.50;7.13;;;;;;;;;;7342575;19;162372;-17
2022/06/05 00:51:46;;;;;;;8.68;5.70;;;;;;;;;;7343052;19;154174;-17
2022/06/05 00:54:18;;;;;;;11.88;6.18;;;;;;;;;;7342814;19;153519;-16
2022/06/05 00:56:49;;;;;;;11.55;6.55;;;;;;;;;;7342274;19;161895;-16
2022/06/05 00:59:21;;;;;;;12.30;7.63;;;;;;;;;;7342245;19;162388;-17
2022/06/05 01:01:54;;;;;;;10.45;6.55;;;;;;;;;;7342403;19;154195;-17
2022/06/05 01:04:25;;;;;;;9.65;6.72;;;;;;;;;;7344604;19;153669;-22
2022/06/05 01:06:59;;;;;;;14.93;7.38;;;;;;;;;;7340251;19;161808;-17
2022/06/05 01:09:30;;;;;;;13.05;8.05;;;;;;;;;;7341829;19;162501;-16
2022/06/05 01:12:11;;;;;;;12.00;7.15;;;;;;;;;;7341985;19;154053;-16
2022/06/05 01:14:54;;;;;;;11.77;6.97;;;;;;;;;;7341929;19;153687;-16
2022/06/05 01:17:34;;;;;;;10.70;6.88;;;;;;;;;;7341587;19;163144;-16
2022/06/05 01:20:13;;;;;;;9.63;7.10;;;;;;;;;;7341366;19;162462;-16
2022/06/05 01:23:09;;;;;;;11.60;6.85;;;;;;;;;;7340622;19;132534;-16
2022/06/05 01:26:00;;;;;;;9.68;7.10;;;;;;;;;;7341826;19;153902;-16
2022/06/05 01:28:35;;;;;;;10.00;6.45;;;;;;;;;;7341237;19;161610;-16
2022/06/05 01:31:13;;;;;;;13.32;7.45;;;;;;;;;;7341228;19;162392;-16
2022/06/05 01:33:52;;;;;;;10.45;6.65;;;;;;;;;;7341261;19;154207;-16
2022/06/05 01:36:30;;;;;;;12.70;7.03;;;;;;;;;;7341316;19;153561;-17
2022/06/05 01:39:05;;;;;;;10.93;6.20;;;;;;;;;;7340813;19;162471;-16
2022/06/05 01:41:45;;;;;;;13.52;6.80;;;;;;;;;;7334110;19;162589;-17
2022/06/05 01:44:20;;;;;;;10.70;6.72;;;;;;;;;;7333787;19;153810;-17
2022/06/05 01:46:53;;;;;;;11.15;6.93;;;;;;;;;;7331540;19;153812;-17
2022/06/05 01:49:29;;;;;;;9.70;6.88;;;;;;;;;;7333274;19;161519;-16
2022/06/05 01:52:03;;;;;;;10.68;6.68;;;;;;;;;;7332742;19;162371;-16
2022/06/05 01:54:38;;;;;;;7.47;5.85;;;;;;;;;;7333376;19;154438;-17
2022/06/05 01:57:13;;;;;;;10.02;6.82;;;;;;;;;;7333322;19;153570;-16
2022/06/05 01:59:51;;;;;;;12.02;6.43;;;;;;;;;;7333120;19;162135;-16
2022/06/05 02:02:27;;;;;;;9.55;6.43;;;;;;;;;;7333052;19;162487;-17
2022/06/05 02:05:05;;;;;;;8.40;6.57;;;;;;;;;;7337099;19;154099;-16
2022/06/05 02:07:40;;;;;;;8.98;6.15;;;;;;;;;;7331683;19;153496;-16
2022/06/05 02:10:17;;;;;;;9.35;6.80;;;;;;;;;;7332521;19;162008;-16
2022/06/05 02:12:53;;;;;;;11.50;7.05;;;;;;;;;;7332633;19;162165;-17
2022/06/05 02:15:24;;;;;;;8.23;6.30;;;;;;;;;;7331552;19;154310;-17
2022/06/05 02:17:59;;;;;;;11.60;6.88;;;;;;;;;;7332840;19;153661;-16
2022/06/05 02:20:30;;;;;;;9.35;5.97;;;;;;;;;;7332466;19;161981;-17
2022/06/05 02:23:02;;;;;;;9.65;6.07;;;;;;;;;;7332289;19;162162;-19
2022/06/05 02:25:34;;;;;;;8.77;6.18;;;;;;;;;;7332520;19;154710;-17
2022/06/05 02:28:10;;;;;;;8.73;6.20;;;;;;;;;;7330835;19;153653;-17
2022/06/05 02:30:48;;;;;;;7.78;6.00;;;;;;;;;;7332219;19;161972;-16
2022/06/05 02:33:28;;;;;;;7.13;5.82;;;;;;;;;;7332062;19;162471;-16
2022/06/05 02:36:08;;;;;;;9.25;6.60;;;;;;;;;;7332194;19;154372;-17
2022/06/05 02:38:47;;;;;;;7.35;5.90;;;;;;;;;;7332313;19;153634;-17
2022/06/05 02:41:26;;;;;;;8.98;5.57;;;;;;;;;;7332089;19;161969;-17
2022/06/05 02:47:05;;;;;;;8.00;5.78;;;;;;;;;;7331673;19;154132;-16
2022/06/05 02:49:42;;;;;;;9.07;6.57;;;;;;;;;;7331975;19;153509;-16
2022/06/05 02:52:14;;;;;;;7.20;5.40;;;;;;;;;;7330031;19;161799;-18
2022/06/05 02:54:50;;;;;;;9.15;6.10;;;;;;;;;;7331492;19;162446;-16
2022/06/05 02:57:21;;;;;;;9.32;6.60;;;;;;;;;;7330487;19;154092;-16
2022/06/05 02:59:55;;;;;;;7.63;6.05;;;;;;;;;;7333714;19;153515;-16
2022/06/05 03:05:11;;;;;;;6.90;5.55;;;;;;;;;;7331158;19;162626;-16
2022/06/05 03:07:42;;;;;;;9.47;6.23;;;;;;;;;;7330678;19;154167;-16
2022/06/05 03:10:14;;;;;;;6.93;5.55;;;;;;;;;;7331493;19;153545;-16
2022/06/05 03:12:45;;;;;;;7.55;5.35;;;;;;;;;;7331164;19;162009;-17
2022/06/05 03:15:19;;;;;;;7.97;5.70;;;;;;;;;;7331027;19;162510;-16
2022/06/05 03:17:51;;;;;;;9.63;6.03;;;;;;;;;;7331194;19;154032;-16
2022/06/05 03:20:22;;;;;;;7.13;6.05;;;;;;;;;;7331164;19;154213;-16
2022/06/05 03:22:54;;;;;;;7.50;5.47;;;;;;;;;;7330730;19;161859;-16
2022/06/05 03:25:27;;;;;;;7.97;5.57;;;;;;;;;;7330788;19;162561;-17
2022/06/05 03:27:58;;;;;;;8.18;6.28;;;;;;;;;;7328676;19;154353;-17
2022/06/05 03:30:32;;;;;;;6.97;5.65;;;;;;;;;;7330746;19;153718;-16
2022/06/05 03:33:03;;;;;;;7.00;5.63;;;;;;;;;;7330367;19;161939;-16
2022/06/05 03:35:38;;;;;;;7.18;5.53;;;;;;;;;;7330243;19;162410;-17
2022/06/05 03:38:10;;;;;;;7.53;5.50;;;;;;;;;;7329491;19;154150;-16
2022/06/05 03:40:42;;;;;;;5.47;4.80;;;;;;;;;;7330379;19;153561;-17
2022/06/05 03:43:14;;;;;;;7.50;5.55;;;;;;;;;;7330100;19;162076;-16
2022/06/05 03:45:48;;;;;;;7.53;5.32;;;;;;;;;;7328748;19;162423;-17
2022/06/05 03:48:19;;;;;;;8.57;5.63;;;;;;;;;;7329128;19;154168;-16
2022/06/05 03:50:50;;;;;;;6.68;5.70;;;;;;;;;;7330339;19;153628;-16
2022/06/05 03:53:21;;;;;;;5.97;4.95;;;;;;;;;;7327915;19;161823;-16
2022/06/05 03:55:53;;;;;;;7.05;5.65;;;;;;;;;;7329915;19;162359;-16
2022/06/05 03:58:24;;;;;;;6.75;5.40;;;;;;;;;;7330242;19;154328;-16
2022/06/05 04:00:58;;;;;;;6.22;4.75;;;;;;;;;;7330677;19;153527;-16
2022/06/05 04:03:29;;;;;;;5.88;4.97;;;;;;;;;;7329382;19;161903;-17
2022/06/05 04:06:00;;;;;;;6.95;5.38;;;;;;;;;;7327618;19;162359;-17
2022/06/05 04:08:31;;;;;;;6.25;4.82;;;;;;;;;;7328734;19;154036;-16
2022/06/05 04:11:06;;;;;;;6.15;5.28;;;;;;;;;;7328511;19;153871;-16
2022/06/05 04:13:38;;;;;;;6.93;5.20;;;;;;;;;;7329318;19;161982;-17
2022/06/05 04:16:16;;;;;;;8.20;5.20;;;;;;;;;;7328956;19;162363;-17
2022/06/05 04:18:47;;;;;;;5.85;4.57;;;;;;;;;;7329537;19;153935;-16
2022/06/05 04:21:22;;;;;;;5.82;5.18;;;;;;;;;;7329225;19;153787;-17
2022/06/05 04:23:54;;;;;;;6.88;5.90;;;;;;;;;;7329057;19;161999;-16
2022/06/05 04:26:27;;;;;;;6.10;4.70;;;;;;;;;;7328715;19;162401;-16
2022/06/05 04:28:58;;;;;;;5.32;4.80;;;;;;;;;;7327573;19;154835;-16
2022/06/05 04:31:35;;;;;;;5.85;4.85;;;;;;;;;;7329149;19;153803;-16
2022/06/05 04:34:08;;;;;;;6.00;4.90;;;;;;;;;;7328553;19;161817;-16
2022/06/05 04:36:39;;;;;;;5.80;4.68;;;;;;;;;;7328334;19;162364;-16
2022/06/05 04:39:11;;;;;;;5.30;4.68;;;;;;;;;;7328923;19;154093;-17
2022/06/05 04:41:43;;;;;;;6.22;4.93;;;;;;;;;;7328747;19;153786;-16
2022/06/05 04:44:16;;;;;;;6.63;5.07;;;;;;;;;;7328547;19;162053;-16
2022/06/05 04:46:50;;;;;;;7.25;5.32;;;;;;;;;;7326972;19;162679;-17
2022/06/05 04:49:21;;;;;;;6.25;4.63;;;;;;;;;;7325493;19;154133;-16
2022/06/05 04:51:52;;;;;;;7.22;5.18;;;;;;;;;;7327976;19;153706;-16
2022/06/05 04:54:24;;;;;;;5.82;4.35;;;;;;;;;;7328089;19;161821;-16
2022/06/05 04:56:55;;;;;;;6.88;4.72;;;;;;;;;;7328029;19;162910;-16
2022/06/05 04:59:26;;;;;;;5.93;5.05;;;;;;;;;;7327117;19;154368;-16
2022/06/05 05:02:00;;;;;;;5.88;5.10;;;;;;;;;;7327884;19;153719;-16
2022/06/05 05:04:31;;;;;;;5.97;4.85;;;;;;;;;;7327457;19;162034;-17
2022/06/05 05:07:03;;;;;;;5.82;4.53;;;;;;;;;;7330889;19;162153;-16
2022/06/05 05:09:34;;;;;;;4.87;4.37;;;;;;;;;;7326398;19;154194;-17
2022/06/05 05:12:06;;;;;;;5.47;4.55;;;;;;;;;;7326620;19;153868;-16
2022/06/05 05:14:39;;;;;;;4.90;4.40;;;;;;;;;;7327138;19;162116;-16
2022/06/05 05:17:12;;;;;;;5.15;4.30;;;;;;;;;;7333067;19;162392;-17
2022/06/05 05:19:44;;;;;;;6.03;4.78;;;;;;;;;;7333754;19;154269;-16
2022/06/05 05:22:15;;;;;;;4.82;4.13;;;;;;;;;;7334550;19;153536;-16
2022/06/05 05:24:46;;;;;;;6.63;4.60;;;;;;;;;;7333896;19;162002;-16
2022/06/05 05:27:17;;;;;;;6.15;4.80;;;;;;;;;;7334031;19;162401;-16
2022/06/05 05:29:48;;;;;;;5.43;4.07;;;;;;;;;;7333094;19;154317;-16
2022/06/05 05:32:22;;;;;;;5.38;4.57;;;;;;;;;;7332902;19;153706;-16
2022/06/05 05:34:54;;;;;;;5.00;4.50;;;;;;;;;;7332612;19;162065;-16
2022/06/05 05:37:25;;;;;;;5.40;4.63;;;;;;;;;;7332463;19;162451;-16
2022/06/05 05:42:40;;;;;;;6.05;4.68;;;;;;;;;;7333722;19;154155;-16
2022/06/05 05:45:12;;;;;;;5.63;4.15;;;;;;;;;;7333493;19;161803;-16
2022/06/05 05:47:46;;;;;;;7.07;5.03;;;;;;;;;;7333300;19;162683;-17
2022/06/05 05:50:17;;;;;;;5.90;4.72;;;;;;;;;;7332344;19;154275;-16
2022/06/05 05:52:49;;;;;;;5.27;4.70;;;;;;;;;;7332480;19;154293;-16
2022/06/05 05:55:22;;;;;;;6.85;5.28;;;;;;;;;;7332948;19;161844;-16
2022/06/05 05:57:53;;;;;;;4.57;4.07;;;;;;;;;;7332506;19;162590;-17
2022/06/05 06:00:25;;;;;;;5.72;4.45;;;;;;;;;;7332892;19;154241;-16
2022/06/05 06:02:59;;;;;;;5.20;4.20;;;;;;;;;;7333357;19;153588;-17
2022/06/05 06:05:34;;;;;;;5.03;4.10;;;;;;;;;;7332530;19;161871;-16
2022/06/05 06:08:05;;;;;;;4.65;4.15;;;;;;;;;;7333426;19;162425;-17
2022/06/05 06:10:37;;;;;;;4.30;3.92;;;;;;;;;;7331485;19;154097;-17
2022/06/05 06:13:08;;;;;;;4.95;4.18;;;;;;;;;;7333246;19;153493;-16
2022/06/05 06:15:40;;;;;;;6.68;4.20;;;;;;;;;;7331507;19;162264;-17
2022/06/05 06:18:14;;;;;;;5.28;4.43;;;;;;;;;;7332653;19;162514;-17
2022/06/05 06:20:47;;;;;;;5.25;4.55;;;;;;;;;;7332832;19;154577;-16
2022/06/05 06:23:18;;;;;;;4.83;4.00;;;;;;;;;;7332644;19;153671;-16
2022/06/05 06:25:49;;;;;;;5.10;4.43;;;;;;;;;;7332388;19;162014;-16
2022/06/05 06:28:20;;;;;;;5.22;4.25;;;;;;;;;;7330491;19;162348;-17
2022/06/05 06:30:51;;;;;;;4.85;4.07;;;;;;;;;;7330810;19;154173;-16
2022/06/05 06:33:25;;;;;;;4.22;3.83;;;;;;;;;;7332621;19;153581;-16
2022/06/05 06:35:57;;;;;;;4.95;4.38;;;;;;;;;;7331884;19;161895;-16
2022/06/05 06:38:28;;;;;;;4.30;3.90;;;;;;;;;;7332188;19;162485;-16
2022/06/05 06:41:03;;;;;;;4.22;3.83;;;;;;;;;;7332394;19;154193;-16
2022/06/05 06:43:35;;;;;;;6.38;4.07;;;;;;;;;;7332213;19;153612;-15
2022/06/05 06:46:07;;;;;;;3.83;3.53;;;;;;;;;;7331453;19;162544;-15
2022/06/05 06:48:41;;;;;;;4.78;4.20;;;;;;;;;;7331782;19;162598;-15
2022/06/05 06:51:13;;;;;;;4.45;4.05;;;;;;;;;;7329915;19;154159;-15
2022/06/05 06:53:45;;;;;;;4.72;4.18;;;;;;;;;;7329370;19;153768;-16
2022/06/05 06:56:20;;;;;;;4.32;3.80;;;;;;;;;;7331380;19;161837;-15
2022/06/05 06:58:55;;;;;;;5.32;4.30;;;;;;;;;;7331574;19;162520;-15
2022/06/05 07:01:26;;;;;;;5.22;4.10;;;;;;;;;;7330396;19;154176;-15
2022/06/05 07:04:00;;;;;;;4.57;4.18;;;;;;;;;;7331600;19;153823;-16
2022/06/05 07:06:31;;;;;;;5.88;4.15;;;;;;;;;;7331094;19;161887;-16
2022/06/05 07:09:03;;;;;;;5.15;3.80;;;;;;;;;;7330843;19;162672;-15
2022/06/05 07:11:34;;;;;;;4.72;4.13;;;;;;;;;;7329283;19;153972;-16
2022/06/05 07:14:05;;;;;;;4.88;4.35;;;;;;;;;;7335140;19;153628;-16
2022/06/05 07:16:36;;;;;;;4.15;3.75;;;;;;;;;;7331016;19;162026;-17
2022/06/05 07:19:11;;;;;;;4.10;3.67;;;;;;;;;;7329705;19;162700;-15
2022/06/05 07:21:42;;;;;;;4.20;3.80;;;;;;;;;;7329748;19;154214;-16
2022/06/05 07:24:13;;;;;;;4.32;3.78;;;;;;;;;;7330947;19;153510;-15
2022/06/05 07:26:45;;;;;;;4.22;3.80;;;;;;;;;;7330726;19;161969;-16
2022/06/05 07:29:16;;;;;;;4.50;3.85;;;;;;;;;;7330422;19;162402;-16
2022/06/05 07:31:47;;;;;;;4.78;4.10;;;;;;;;;;7328654;19;153996;-18
2022/06/05 07:34:21;;;;;;;4.35;3.58;;;;;;;;;;7329561;19;153610;-16
2022/06/05 07:36:52;;;;;;;5.15;4.15;;;;;;;;;;7330215;19;162002;-16
2022/06/05 07:39:23;;;;;;;4.05;3.38;;;;;;;;;;7327160;19;162360;-16
2022/06/05 07:41:58;;;;;;;4.38;3.97;;;;;;;;;;7330637;19;154493;-16
2022/06/05 07:44:30;;;;;;;4.05;3.65;;;;;;;;;;7330522;19;153551;-16
2022/06/05 07:47:04;;;;;;;4.33;3.93;;;;;;;;;;7330246;19;161877;-16
2022/06/05 07:49:40;;;;;;;4.93;3.50;;;;;;;;;;7330127;19;162447;-16
2022/06/05 07:54:57;;;;;;;4.20;3.80;;;;;;;;;;7329966;19;153527;-18
2022/06/05 07:57:28;;;;;;;4.45;3.72;;;;;;;;;;7329576;19;162106;-18
2022/06/05 07:59:59;;;;;;;4.18;3.78;;;;;;;;;;7329540;19;162699;-18
2022/06/05 08:02:31;;;;;;;3.88;3.58;;;;;;;;;;7329666;19;154094;-18
2022/06/05 08:05:05;;;;;;;4.38;3.97;;;;;;;;;;7329800;19;153592;-16
2022/06/05 08:07:37;;;;;;;4.22;3.83;;;;;;;;;;7329384;19;162415;-16
2022/06/05 08:10:09;;;;;;;4.68;4.13;;;;;;;;;;7329171;19;162360;-16
2022/06/05 08:12:40;;;;;;;4.45;4.03;;;;;;;;;;7327151;19;154071;-16
2022/06/05 08:15:16;;;;;;;4.28;3.70;;;;;;;;;;7328000;19;153983;-16
2022/06/05 08:17:47;;;;;;;4.15;3.75;;;;;;;;;;7328991;19;161897;-16
2022/06/05 08:20:21;;;;;;;4.13;3.72;;;;;;;;;;7332258;19;162419;-16
2022/06/05 08:22:52;;;;;;;4.40;3.85;;;;;;;;;;7328231;19;154679;-16
2022/06/05 08:25:24;;;;;;;3.72;3.35;;;;;;;;;;7327472;19;153710;-16
2022/06/05 08:27:55;;;;;;;4.75;3.80;;;;;;;;;;7328049;19;162296;-16
2022/06/05 08:30:26;;;;;;;4.25;3.78;;;;;;;;;;7327704;19;162349;-16
2022/06/05 08:32:57;;;;;;;4.13;3.70;;;;;;;;;;7329585;19;154098;-16
2022/06/05 08:35:31;;;;;;;4.38;3.88;;;;;;;;;;7328872;19;153807;-16
2022/06/05 08:43:46;;;;;;;4.28;3.67;;;;;;;;;;7327395;19;154263;-16
2022/06/05 08:46:24;;;;;;;4.40;4.00;;;;;;;;;;7327046;19;153634;-16
2022/06/05 08:48:59;;;;;;;3.78;3.45;;;;;;;;;;7327529;19;162067;-16
2022/06/05 08:51:55;;;;;;;3.75;3.45;;;;;;;;;;7330437;19;162573;-16
2022/06/05 08:54:34;;;;;;;4.22;3.85;;;;;;;;;;7335187;19;154393;-16
2022/06/05 08:57:10;;;;;;;4.07;3.63;;;;;;;;;;7334390;19;153566;-15
2022/06/05 08:59:47;;;;;;;3.58;3.28;;;;;;;;;;7334451;19;161838;-16
2022/06/05 09:02:27;;;;;;;3.90;3.60;;;;;;;;;;7337401;19;162735;-16
2022/06/05 09:05:02;;;;;;;4.40;4.00;;;;;;;;;;7334922;19;154344;-16
2022/06/05 09:07:45;;;;;;;3.85;3.45;;;;;;;;;;7334778;19;153545;-16
2022/06/05 09:10:21;;;;;;;3.90;3.60;;;;;;;;;;7333172;19;161837;-16
2022/06/05 09:12:56;;;;;;;3.95;3.55;;;;;;;;;;7331526;19;162434;-15
2022/06/05 09:15:30;;;;;;;3.95;3.55;;;;;;;;;;7334470;19;154133;-16
2022/06/05 09:18:04;;;;;;;4.00;3.60;;;;;;;;;;7333218;19;153529;-16
2022/06/05 09:20:46;;;;;;;4.57;4.13;;;;;;;;;;7333863;19;161873;-16
2022/06/05 09:23:26;;;;;;;3.70;3.40;;;;;;;;;;7333891;19;162568;-16
2022/06/05 09:26:04;;;;;;;3.80;3.50;;;;;;;;;;7334223;19;153972;-16
2022/06/05 09:29:02;;;;;;;4.70;3.95;;;;;;;;;;7332882;19;154845;-17
2022/06/05 09:32:00;;;;;;;4.45;3.55;;;;;;;;;;7334637;19;161893;-18
2022/06/05 09:34:36;;;;;;;4.07;3.67;;;;;;;;;;7333732;19;162443;-16
2022/06/05 09:37:15;;;;;;;4.60;4.20;;;;;;;;;;7334035;19;154109;-16
2022/06/05 09:39:55;;;;;;;9.70;3.90;;;;;;;;;;7333998;19;153582;-16
2022/06/05 09:42:48;;;;;;;4.70;3.67;;;;;;;;;;7333367;19;161897;-16
2022/06/05 09:45:27;;;;;;;;;;;;;;;;;;7333920;19;162379;-16
2022/06/05 09:48:14;;;;;;;6.75;4.30;;;;;;;;;;7333840;19;154237;-16
2022/06/05 09:50:45;;;;;;;6.85;4.20;;;;;;;;;;7333480;19;153760;-16
2022/06/05 09:53:21;;;;;;;7.47;3.90;;;;;;;;;;7330790;19;162134;-16
2022/06/05 09:56:06;;;;;;;5.18;3.83;;;;;;;;;;7331707;19;162409;-16
2022/06/05 09:58:52;;;;;;;4.30;3.47;;;;;;;;;;7331858;19;154277;-15
2022/06/05 10:01:28;;;;;;;5.97;3.28;;;;;;;;;;7334261;19;153552;-16
2022/06/05 10:04:00;;;;;;;4.63;3.70;;;;;;;;;;7331038;19;162142;-16
2022/06/05 10:06:40;;;;;;;6.13;3.33;;;;;;;;;;7333091;19;162542;-15
2022/06/05 10:09:15;;;;;;;4.25;3.58;;;;;;;;;;7333410;19;154116;-15
2022/06/05 10:11:54;;;;;;;4.28;3.47;;;;;;;;;;7333002;19;153533;-16
2022/06/05 10:14:47;;;;;;;4.60;3.50;;;;;;;;;;7332532;19;161984;-16
2022/06/05 10:17:30;;;;;;;6.13;3.30;;;;;;;;;;7332414;19;162273;-16
2022/06/05 10:20:11;;;;;;;6.13;3.70;;;;;;;;;;7331879;19;154201;-16
2022/06/05 10:22:48;;;;;;;5.05;3.67;;;;;;;;;;7332794;19;153545;-16
2022/06/05 10:25:30;;;;;;;5.53;3.33;;;;;;;;;;7332474;19;162082;-15
2022/06/05 10:28:11;;;;;;;4.20;3.15;;;;;;;;;;7331089;19;162427;-16
2022/06/05 10:30:46;;;;;;;4.10;3.20;;;;;;;;;;7332638;19;154129;-16
2022/06/05 10:33:25;;;;;;;3.20;2.90;;;;;;;;;;7335578;19;153515;-16
2022/06/05 10:36:00;;;;;;;4.95;3.33;;;;;;;;;;7335592;19;161849;-16
2022/06/05 10:38:38;;;;;;;3.35;3.05;;;;;;;;;;7336270;19;162439;-15
2022/06/05 10:41:21;;;;;;;6.95;3.45;;;;;;;;;;7332080;19;154043;-15
2022/06/05 10:44:13;;;;;;;4.05;3.30;;;;;;;;;;7332167;19;154019;-16
2022/06/05 10:47:03;;;;;;;4.60;2.90;;;;;;;;;;7331541;19;162051;-16
2022/06/05 10:49:41;;;;;;;5.07;3.22;;;;;;;;;;7334253;19;162657;-16
2022/06/05 10:52:22;;;;;;;3.60;3.10;;;;;;;;;;7330876;19;155027;-16
2022/06/05 10:55:00;;;;;;;5.90;3.22;;;;;;;;;;7331878;19;153549;-16
2022/06/05 10:57:35;;;;;;;11.30;3.42;;;;;;;;;;7331581;19;161752;-16
2022/06/05 11:00:21;;;;;;;8.07;3.70;;;;;;;;;;7331366;19;162481;-16
2022/06/05 11:03:08;;;;;;;4.45;2.75;;;;;;;;;;7334362;19;154345;-16
2022/06/05 11:05:49;;;;;;;9.35;3.78;;;;;;;;;;7330435;19;153742;-16
2022/06/05 11:08:31;;;;;;;6.40;3.53;;;;;;;;;;7329852;19;161765;-16
2022/06/05 11:14:14;;;;;;;6.25;3.60;;;;;;;;;;7329162;19;154090;-16
2022/06/05 11:17:08;;;;;;;4.53;3.65;;;;;;;;;;7331220;19;153941;-16
2022/06/05 11:19:46;;;;;;;3.92;3.63;;;;;;;;;;7330939;19;161982;-16
2022/06/05 11:22:19;;;;;;;10.55;2.95;;;;;;;;;;7330606;19;162396;-16
2022/06/05 11:24:54;;;;;;;6.05;3.42;;;;;;;;;;7330907;19;154047;-15
2022/06/05 11:27:31;;;;;;;13.82;3.70;;;;;;;;;;7330627;19;153857;-16
2022/06/05 11:30:09;;;;;;;5.00;3.72;;;;;;;;;;7330471;19;162118;-16
2022/06/05 11:32:51;;;;;;;4.07;3.30;;;;;;;;;;7333556;19;162418;-18
2022/06/05 11:35:34;;;;;;;3.20;2.90;;;;;;;;;;7330575;19;154101;-16
2022/06/05 11:38:26;;;;;;;4.53;2.63;;;;;;;;;;7330454;19;153535;-18
2022/06/05 11:41:03;;;;;;;3.93;3.27;;;;;;;;;;7330272;19;161875;-17
2022/06/05 11:43:36;;;;;;;6.35;3.00;;;;;;;;;;7330127;19;162377;-18
2022/06/05 11:46:32;;;;;;;5.50;2.95;;;;;;;;;;7330414;19;154091;-16
2022/06/05 11:49:14;;;;;;;6.80;3.05;;;;;;;;;;7330422;19;153506;-18
2022/06/05 11:52:00;;;;;;;3.05;2.63;;;;;;;;;;7329780;19;161978;-17
2022/06/05 11:54:40;;;;;;;6.13;3.10;;;;;;;;;;7327951;19;162655;-16
2022/06/05 11:57:18;;;;;;;4.13;3.00;;;;;;;;;;7330246;19;154140;-17
2022/06/05 11:59:58;;;;;;;4.80;2.97;;;;;;;;;;7330124;19;153669;-17
2022/06/05 12:02:45;;;;;;;6.25;3.20;;;;;;;;;;7332689;19;161765;-17
2022/06/05 12:05:24;;;;;;;8.70;4.00;;;;;;;;;;7329525;19;162540;-16
2022/06/05 12:08:04;;;;;;;7.97;2.88;;;;;;;;;;7330068;19;154330;-17
2022/06/05 12:10:41;;;;;;;4.72;3.00;;;;;;;;;;7328566;19;153525;-16
2022/06/05 12:13:37;;;;;;;7.88;3.00;;;;;;;;;;7328531;19;162033;-17
2022/06/05 12:16:13;;;;;;;5.63;2.80;;;;;;;;;;7329004;19;162352;-17
2022/06/05 12:18:53;;;;;;;5.55;2.92;;;;;;;;;;7329436;19;154112;-16
2022/06/05 12:21:31;;;;;;;5.28;3.10;;;;;;;;;;7329133;19;153544;-15
2022/06/05 12:24:08;;;;;;;3.28;2.97;;;;;;;;;;7328867;19;162036;-16
2022/06/05 12:26:50;;;;;;;7.85;3.08;;;;;;;;;;7326790;19;162848;-16
2022/06/05 12:29:26;;;;;;;3.23;2.90;;;;;;;;;;7328912;19;154182;-16
2022/06/05 12:32:03;;;;;;;9.48;2.75;;;;;;;;;;7333080;19;153970;-16
2022/06/05 12:34:42;;;;;;;3.00;2.75;;;;;;;;;;7329683;19;161831;-17
2022/06/05 12:37:21;;;;;;;9.40;2.80;;;;;;;;;;7329663;19;162419;-16
2022/06/05 12:39:56;;;;;;;4.25;2.63;;;;;;;;;;7330199;19;153965;-16
2022/06/05 12:42:37;;;;;;;6.07;2.40;;;;;;;;;;7331875;19;153568;-17
2022/06/05 12:45:22;;;;;;;5.22;2.60;;;;;;;;;;7328926;19;162218;-17
2022/06/05 12:48:06;;;;;;;4.03;2.78;;;;;;;;;;7328426;19;162625;-16
2022/06/05 12:50:48;;;;;;;9.15;2.80;;;;;;;;;;7328385;19;154239;-16
2022/06/05 12:53:34;;;;;;;4.18;3.00;;;;;;;;;;7326196;19;153868;-17
2022/06/05 12:56:24;;;;;;;3.47;2.47;;;;;;;;;;7327984;19;161846;-17
2022/06/05 12:59:01;;;;;;;5.70;2.67;;;;;;;;;;7327716;19;162307;-16
2022/06/05 13:01:38;;;;;;;7.80;2.65;;;;;;;;;;7329370;19;154047;-17
2022/06/05 13:04:18;;;;;;;3.22;2.20;;;;;;;;;;7327987;19;153634;-17
2022/06/05 13:07:00;;;;;;;3.95;2.55;;;;;;;;;;7327618;19;161733;-18
2022/06/05 13:09:39;;;;;;;2.70;2.50;;;;;;;;;;7327535;19;163589;-18
2022/06/05 13:12:18;;;;;;;4.18;2.85;;;;;;;;;;7328284;19;154070;-16
2022/06/05 13:14:56;;;;;;;2.67;2.40;;;;;;;;;;7326645;19;153550;-17
2022/06/05 13:17:41;;;;;;;4.13;2.60;;;;;;;;;;7327335;19;161829;-18
2022/06/05 13:20:23;;;;;;;4.53;2.33;;;;;;;;;;7326738;19;162402;-17
2022/06/05 13:23:03;;;;;;;5.30;2.55;;;;;;;;;;7332059;19;154549;-16
2022/06/05 13:25:50;;;;;;;3.42;2.10;;;;;;;;;;7330737;19;153536;-17
2022/06/05 13:28:35;;;;;;;4.20;2.45;;;;;;;;;;7326149;19;161801;-18
2022/06/05 13:31:27;;;;;;;3.23;2.80;;;;;;;;;;7326037;19;162608;-18
2022/06/05 13:34:05;;;;;;;;;;;;;;;;;;7327697;19;154345;-16
2022/06/05 13:36:43;;;;;;;2.80;2.40;;;;;;;;;;7329704;19;153650;-17
2022/06/05 13:39:26;;;;;;;2.83;2.20;;;;;;;;;;7335705;19;162022;-16
2022/06/05 13:42:05;;;;;;;3.10;2.63;;;;;;;;;;7338138;19;162535;-16
2022/06/05 13:44:37;;;;;;;3.67;2.40;;;;;;;;;;7333889;19;154356;-16
2022/06/05 13:47:18;;;;;;;2.53;2.13;;;;;;;;;;7336611;19;153779;-17
2022/06/05 13:50:00;;;;;;;3.30;2.60;;;;;;;;;;7333611;19;161862;-16
2022/06/05 13:52:40;;;;;;;2.72;2.53;;;;;;;;;;7332101;19;162605;-17
2022/06/05 13:55:20;;;;;;;3.55;2.90;;;;;;;;;;7334499;19;154230;-17
2022/06/05 13:58:00;;;;;;;4.50;2.88;;;;;;;;;;7336827;19;153655;-17
2022/06/05 14:00:36;;;;;;;2.17;2.03;;;;;;;;;;7337285;19;162079;-17
2022/06/05 14:03:11;;;;;;;2.22;2.13;;;;;;;;;;7337317;19;162578;-17
2022/06/05 14:05:52;;;;;;;3.22;2.50;;;;;;;;;;7335449;19;154003;-17
2022/06/05 14:08:29;;;;;;;2.88;2.30;;;;;;;;;;7337081;19;153593;-16
2022/06/05 14:11:02;;;;;;;2.63;2.40;;;;;;;;;;7333417;19;161824;-17
2022/06/05 14:13:45;;;;;;;3.03;2.80;;;;;;;;;;7336414;19;162482;-16
2022/06/05 14:16:17;;;;;;;3.33;2.45;;;;;;;;;;7335784;19;154130;-15
2022/06/05 14:18:51;;;;;;;3.30;2.90;;;;;;;;;;7332906;19;153534;-17
2022/06/05 14:21:25;;;;;;;2.90;2.63;;;;;;;;;;7335940;19;161793;-16
2022/06/05 14:24:20;;;;;;;3.88;2.40;;;;;;;;;;7332696;19;162402;-16
2022/06/05 14:26:55;;;;;;;3.72;2.15;;;;;;;;;;7333197;19;154401;-16
2022/06/05 14:29:33;;;;;;;2.63;2.20;;;;;;;;;;7334051;19;153577;-17
2022/06/05 14:32:10;;;;;;;2.03;1.90;;;;;;;;;;7334226;19;161887;-16
2022/06/05 14:34:44;;;;;;;3.83;2.53;;;;;;;;;;7332289;19;163723;-16
2022/06/05 14:37:29;;;;;;;2.45;1.90;;;;;;;;;;7335253;19;154168;-17
2022/06/05 14:40:05;;;;;;;2.40;2.00;;;;;;;;;;7332863;19;153504;-17
2022/06/05 14:42:44;;;;;;;4.47;2.40;;;;;;;;;;7336151;19;161918;-17
2022/06/05 14:45:22;;;;;;;4.50;1.90;;;;;;;;;;7333866;19;163159;-17
2022/06/05 14:47:58;;;;;;;2.47;2.28;;;;;;;;;;7335681;19;154366;-18
2022/06/05 14:50:35;;;;;;;3.00;1.90;;;;;;;;;;7333405;19;153785;-18
2022/06/05 14:53:21;;;;;;;2.40;2.13;;;;;;;;;;7333502;19;161824;-17
2022/06/05 14:58:52;;;;;;;2.63;1.98;;;;;;;;;;7332444;19;154219;-17
2022/06/05 15:01:37;;;;;;;3.65;1.95;;;;;;;;;;7332046;19;153537;-19
2022/06/05 15:04:17;;;;;;;4.38;2.03;;;;;;;;;;7331587;19;161879;-17
2022/06/05 15:06:53;;;;;;;1.70;1.60;;;;;;;;;;7331885;19;162354;-17
2022/06/05 15:09:29;;;;;;;1.95;1.58;;;;;;;;;;7332213;19;154144;-18
2022/06/05 15:12:06;;;;;;;4.13;2.03;;;;;;;;;;7332051;19;153533;-18
2022/06/05 15:14:44;;;;;;;3.42;2.13;;;;;;;;;;7331633;19;162173;-17
2022/06/05 15:17:29;;;;;;;2.55;1.90;;;;;;;;;;7329036;19;162467;-18
2022/06/05 15:20:03;;;;;;;3.83;1.60;;;;;;;;;;7331623;19;154157;-15
2022/06/05 15:22:47;;;;;;;2.33;2.13;;;;;;;;;;7331299;19;153580;-15
2022/06/05 15:25:27;;;;;;;2.03;1.92;;;;;;;;;;7331075;19;161822;-17
2022/06/05 15:28:05;;;;;;;2.58;1.88;;;;;;;;;;7329976;19;162442;-17
2022/06/05 15:30:40;;;;;;;2.30;2.10;;;;;;;;;;7331478;19;154033;-17
2022/06/05 15:33:23;;;;;;;2.20;2.00;;;;;;;;;;7335599;19;153673;-16
2022/06/05 15:36:01;;;;;;;2.83;2.23;;;;;;;;;;7330205;19;161822;-16
2022/06/05 15:38:47;;;;;;;3.72;2.10;;;;;;;;;;7333721;19;162947;-16
2022/06/05 15:41:35;;;;;;;2.00;1.85;;;;;;;;;;7329712;19;154102;-17
2022/06/05 15:44:21;;;;;;;2.88;2.28;;;;;;;;;;7331629;19;153491;-17
2022/06/05 15:47:03;;;;;;;3.42;1.73;;;;;;;;;;7331243;19;161946;-17